Terminal Aerodrome Forecast
Issued by NWS Shreveport, LA

Home | Current Version | Previous Version | Text Only | Print | Product List | Glossary On
Versions: 1 2 3 4 5 6 7 8 9 10 11 12
295
FTUS44 KSHV 240539
TAFTYR
TAF
KTYR 240539Z 2406/2506 20003KT P6SM SKC
     FM241000 21003KT P6SM SCT250
     FM241500 18007KT P6SM BKN250
     FM241900 19012KT P6SM BKN250
     FM250100 17009KT P6SM FEW250=

USA.gov is the U.S. government's official web portal to all federal, state and local government web resources and services.